الصفحة الرئيسية
METAR-TAF:

METAR-TAF

مطار :

مطار البحرين الدولي

البحرين, البحرين

دائرة عرض: 26-16N, خط طول: 050-39E, ارتفاع: 2 متر

مراقبة الطقس الحالي

تاريخ ووقت الإصدار 34 دقيقة قبل الساعة 00:00UTC
رياح هادئة
درجة الحرارة 29°درجة مئوية
الرطوبة 70%
ضغط 1012 hPa
الرؤية: 5000 متر
سماء صافية
العجاج

METAR: OBBI 170000Z 00000KT 5000 HZ SKC 29/23 Q1012 NOSIG

زمن: 03:34 (00:34 UTC)

توقعات

تاريخ ووقت الإصدار 1ساعة و 34 دقيقة قبل الساعة 23:00UTC
التوقعات صالحة من17 الساعة 00 UTC إلى 18 الساعة 06 UTC
ريح 5 عقدةمن اتجاهات متغيرة
الرؤية: 7000 متر
نظرية الاحتمالات 30% :
مؤقت
من 17 الساعة 00 UTC إلى 17 الساعة 05 UTC
الرؤية: 3000 متر
العجاج
أصبح
من 17 الساعة 09 UTC إلى 17 الساعة 11 UTC
ريح 10 عقدة من الشرق/الشمال الشرقي
نظرية الاحتمالات 30% :
مؤقت
من 17 الساعة 12 UTC إلى 17 الساعة 14 UTC
ريح 17 عقدة من الشمال/الشمال الغربي تتزايد حتى 27 عقدة

TAF: OBBI 162300Z 1700/1806 VRB05KT 7000 NSC PROB30 TEMPO 1700/1705 3000 HZ BECMG 1709/1711 07010KT PROB30 TEMPO 1712/1714 34017G27KT

أرصاد الطقس والتوقعات من أكثر من 4000 مطار (تقارير الطقس للمطار METAR والتنبؤ بالطقس بالمطارTAF).

المحطات المتاحة هي النقط الصفراء والحمراء على الخريطة.

حرك المؤشر فوق النقطة لمعرفة اسم المحطة.

ثم انقر لمعرفة أرصاد وتوقعات الطقس.

لتغيير الخارطة: اضغط على الأزرار الخضراء مع رمز الصليب الأسود للتكبير. على الزر الأخضر مع شرطة للتصغير، أو على الأسهم الخضراء للخرائط المجاورة.


METAR-TAF: